Time;durP1;ratioP1;P1;durP2;ratioP2;P2;SDS_P1;SDS_P2;PMS_P1;PMS_P2;Temp;Humidity;BMP_temperature;BMP_pressure;BME280_temperature;BME280_humidity;BME280_pressure;Samples;Min_cycle;Max_cycle;Signal;HPM_P1;HPM_P2
2023/12/09 00:02:23;;;;;;;;;;;8.40;97.00;;;;;;6307517;22;19899;-80
2023/12/09 00:04:49;;;;;;;;;;;8.40;97.00;;;;;;6307211;22;19907;-80
2023/12/09 00:07:14;;;;;;;;;;;8.40;97.00;;;;;;6307123;22;19899;-80
2023/12/09 00:09:40;;;;;;;;;;;8.40;97.00;;;;;;6306950;22;20278;-80
2023/12/09 00:12:05;;;;;;;;;;;8.40;97.10;;;;;;6307398;22;20229;-80
2023/12/09 00:14:31;;;;;;;;;;;8.40;97.10;;;;;;6306673;22;20308;-80
2023/12/09 00:16:56;;;;;;;;;;;8.40;97.10;;;;;;6306837;22;20290;-80
2023/12/09 00:19:22;;;;;;;;;;;8.40;97.10;;;;;;6307386;22;20333;-80
2023/12/09 00:21:47;;;;;;;;;;;8.30;97.10;;;;;;6303688;22;19907;-80
2023/12/09 00:24:13;;;;;;;;;;;8.30;97.20;;;;;;6303246;22;19903;-80
2023/12/09 00:26:38;;;;;;;;;;;8.30;97.30;;;;;;6306620;22;19902;-80
2023/12/09 00:29:04;;;;;;;;;;;8.30;97.40;;;;;;6307475;22;20358;-80
2023/12/09 00:31:30;;;;;;;;;;;8.30;97.30;;;;;;6308508;22;19899;-80
2023/12/09 00:33:55;;;;;;;;;;;8.30;97.30;;;;;;6308131;22;19925;-80
2023/12/09 00:36:21;;;;;;;;;;;8.30;97.40;;;;;;6307901;22;19930;-80
2023/12/09 00:38:46;;;;;;;;;;;8.20;97.40;;;;;;6309261;22;19903;-80
2023/12/09 00:41:12;;;;;;;;;;;8.20;97.50;;;;;;6309225;22;20280;-80
2023/12/09 00:43:38;;;;;;;;;;;8.20;97.60;;;;;;6309019;22;20309;-80
2023/12/09 00:46:03;;;;;;;;;;;8.20;97.70;;;;;;6309562;22;19899;-80
2023/12/09 00:48:29;;;;;;;;;;;8.20;97.70;;;;;;6309333;22;20251;-80
2023/12/09 00:50:54;;;;;;;;;;;8.20;97.60;;;;;;6281758;22;19902;-79
2023/12/09 00:53:20;;;;;;;;;;;8.20;97.70;;;;;;6309246;22;19977;-80
2023/12/09 00:55:45;;;;;;;;;;;8.20;97.60;;;;;;6308648;22;19899;-80
2023/12/09 00:58:11;;;;;;;;;;;8.20;97.70;;;;;;6308836;22;19899;-80
2023/12/09 01:00:36;;;;;;;;;;;8.20;97.80;;;;;;6308826;22;19926;-80
2023/12/09 01:03:02;;;;;;;;;;;8.20;97.80;;;;;;6309225;22;20268;-80
2023/12/09 01:05:27;;;;;;;;;;;8.20;97.80;;;;;;6308763;22;20220;-80
2023/12/09 01:07:53;;;;;;;;;;;8.20;98.10;;;;;;6309231;22;20368;-80
2023/12/09 01:10:18;;;;;;;;;;;8.20;97.80;;;;;;6309320;22;20194;-80
2023/12/09 01:12:44;;;;;;;;;;;8.20;97.80;;;;;;6309190;22;19930;-81
2023/12/09 01:15:09;;;;;;;;;;;8.20;97.80;;;;;;6308909;22;19899;-80
2023/12/09 01:17:35;;;;;;;;;;;8.20;97.80;;;;;;6309285;22;19898;-80
2023/12/09 01:20:00;;;;;;;;;;;8.20;97.80;;;;;;6309154;22;20309;-80
2023/12/09 01:22:26;;;;;;;;;;;8.20;97.90;;;;;;6309113;22;20339;-81
2023/12/09 01:24:51;;;;;;;;;;;8.10;97.90;;;;;;6309064;22;20024;-81
2023/12/09 01:27:17;;;;;;;;;;;8.10;97.90;;;;;;6309405;22;20324;-81
2023/12/09 01:29:43;;;;;;;;;;;8.10;98.00;;;;;;6309359;22;20607;-81
2023/12/09 01:32:08;;;;;;;;;;;8.10;98.00;;;;;;6308828;22;19978;-81
2023/12/09 01:34:36;;;;;;;;;;;8.10;98.00;;;;;;6308940;22;19960;-80
2023/12/09 01:37:02;;;;;;;;;;;8.10;98.10;;;;;;6308788;22;19903;-80
2023/12/09 01:39:27;;;;;;;;;;;8.10;98.10;;;;;;6280531;22;19910;-80
2023/12/09 01:41:53;;;;;;;;;;;8.10;98.10;;;;;;6309434;22;19952;-80
2023/12/09 01:44:18;;;;;;;;;;;8.10;98.10;;;;;;6308642;22;19902;-80
2023/12/09 01:46:44;;;;;;;;;;;8.10;98.00;;;;;;6308784;22;19934;-81
2023/12/09 01:49:10;;;;;;;;;;;8.10;98.10;;;;;;6308122;22;19910;-81
2023/12/09 01:51:36;;;;;;;;;;;8.10;98.20;;;;;;6308874;22;19899;-81
2023/12/09 01:54:02;;;;;;;;;;;8.10;98.40;;;;;;6308245;22;19899;-81
2023/12/09 01:56:27;;;;;;;;;;;8.10;98.20;;;;;;6309206;22;19973;-80
2023/12/09 01:58:53;;;;;;;;;;;8.10;98.30;;;;;;6308752;22;19899;-80
2023/12/09 02:01:19;;;;;;;;;;;8.10;98.30;;;;;;6308884;22;19911;-80
2023/12/09 02:03:44;;;;;;;;;;;8.00;98.40;;;;;;6281612;22;19906;-80
2023/12/09 02:06:10;;;;;;;;;;;8.00;98.30;;;;;;6309193;22;19899;-80
2023/12/09 02:08:35;;;;;;;;;;;8.00;98.40;;;;;;6308346;22;20221;-79
2023/12/09 02:11:20;;;;;;;;;;;8.00;98.40;;;;;;6306707;22;20233;-80
2023/12/09 02:13:45;;;;;;;;;;;8.00;98.40;;;;;;6308005;22;19903;-81
2023/12/09 02:16:16;;;;;;;;;;;8.00;98.50;;;;;;6280938;22;19903;-82
2023/12/09 02:18:43;;;;;;;;;;;7.90;98.40;;;;;;6281027;22;19899;-81
2023/12/09 02:21:09;;;;;;;;;;;7.90;98.40;;;;;;6308315;22;19934;-81
2023/12/09 02:23:35;;;;;;;;;;;7.90;98.50;;;;;;6280646;22;19906;-80
2023/12/09 02:26:04;;;;;;;;;;;7.90;98.60;;;;;;6308667;22;19969;-80
2023/12/09 02:28:31;;;;;;;;;;;7.90;98.60;;;;;;6308586;22;19899;-80
2023/12/09 02:31:13;;;;;;;;;;;7.90;98.70;;;;;;6308361;22;19908;-80
2023/12/09 02:33:43;;;;;;;;;;;7.90;98.70;;;;;;6308622;22;19902;-80
2023/12/09 02:36:10;;;;;;;;;;;7.90;98.60;;;;;;6308405;22;19911;-81
2023/12/09 02:38:37;;;;;;;;;;;8.00;98.70;;;;;;6308051;22;19899;-81
2023/12/09 02:41:03;;;;;;;;;;;8.00;98.70;;;;;;6308210;22;20297;-81
2023/12/09 02:43:29;;;;;;;;;;;7.90;98.70;;;;;;6308256;22;20309;-80
2023/12/09 02:45:55;;;;;;;;;;;7.90;98.70;;;;;;6308409;22;19944;-80
2023/12/09 02:48:22;;;;;;;;;;;7.90;98.80;;;;;;6308335;22;19899;-81
2023/12/09 02:50:47;;;;;;;;;;;7.90;98.80;;;;;;6307110;22;19902;-82
2023/12/09 02:53:14;;;;;;;;;;;7.90;98.80;;;;;;6307671;22;19945;-81
2023/12/09 02:55:39;;;;;;;;;;;7.90;98.90;;;;;;6308023;22;19898;-81
2023/12/09 02:58:05;;;;;;;;;;;7.90;98.80;;;;;;6308643;22;19903;-81
2023/12/09 03:00:30;;;;;;;;;;;7.90;98.80;;;;;;6308400;22;19924;-81
2023/12/09 03:02:56;;;;;;;;;;;7.90;98.90;;;;;;6308265;22;20293;-81
2023/12/09 03:05:21;;;;;;;;;;;7.90;98.90;;;;;;6308303;22;20240;-81
2023/12/09 03:07:47;;;;;;;;;;;7.90;98.90;;;;;;6308167;22;19905;-80
2023/12/09 03:10:12;;;;;;;;;;;8.00;98.90;;;;;;6308301;22;20222;-81
2023/12/09 03:12:38;;;;;;;;;;;7.90;98.90;;;;;;6307928;22;20394;-81
2023/12/09 03:15:05;;;;;;;;;;;7.90;98.90;;;;;;6307658;22;20275;-81
2023/12/09 03:17:32;;;;;;;;;;;7.90;98.90;;;;;;6307661;22;19899;-82
2023/12/09 03:19:58;;;;;;;;;;;7.90;98.80;;;;;;6308131;22;19944;-81
2023/12/09 03:22:23;;;;;;;;;;;7.90;98.90;;;;;;6307415;22;20255;-81
2023/12/09 03:24:49;;;;;;;;;;;7.90;99.00;;;;;;6307896;22;19902;-81
2023/12/09 03:27:15;;;;;;;;;;;7.90;98.90;;;;;;6307844;22;19899;-81
2023/12/09 03:29:41;;;;;;;;;;;7.90;98.90;;;;;;6308006;22;19926;-80
2023/12/09 03:32:07;;;;;;;;;;;7.90;98.90;;;;;;6307922;22;20218;-79
2023/12/09 03:34:32;;;;;;;;;;;7.90;98.90;;;;;;6307597;22;19925;-80
2023/12/09 03:36:58;;;;;;;;;;;7.90;98.90;;;;;;6307939;22;19915;-79
2023/12/09 03:39:24;;;;;;;;;;;7.90;99.00;;;;;;6280262;22;19903;-80
2023/12/09 03:41:49;;;;;;;;;;;7.90;99.00;;;;;;6307851;22;19999;-80
2023/12/09 03:44:15;;;;;;;;;;;7.90;99.00;;;;;;6307353;22;19948;-80
2023/12/09 03:46:40;;;;;;;;;;;7.90;98.90;;;;;;6307568;22;19974;-80
2023/12/09 03:49:06;;;;;;;;;;;7.90;99.10;;;;;;6308036;22;19902;-80
2023/12/09 03:51:32;;;;;;;;;;;7.90;98.90;;;;;;6307486;22;19910;-80
2023/12/09 03:53:57;;;;;;;;;;;7.90;99.00;;;;;;6307492;22;19899;-80
2023/12/09 03:56:23;;;;;;;;;;;7.90;99.00;;;;;;6307382;22;19977;-80
2023/12/09 03:58:48;;;;;;;;;;;7.90;98.90;;;;;;6307517;22;19981;-80
2023/12/09 04:01:14;;;;;;;;;;;7.90;98.90;;;;;;6307364;22;19906;-80
2023/12/09 04:03:39;;;;;;;;;;;7.90;98.80;;;;;;6309141;22;20353;-80
2023/12/09 04:06:05;;;;;;;;;;;7.80;98.90;;;;;;6309996;22;20294;-80
2023/12/09 04:08:31;;;;;;;;;;;7.80;98.90;;;;;;6309951;22;20005;-80
2023/12/09 04:10:56;;;;;;;;;;;7.80;98.90;;;;;;6309950;22;19985;-80
2023/12/09 04:13:22;;;;;;;;;;;7.90;98.90;;;;;;6310033;22;19903;-81
2023/12/09 04:15:48;;;;;;;;;;;7.80;98.80;;;;;;6282184;22;19910;-80
2023/12/09 04:18:13;;;;;;;;;;;7.80;98.80;;;;;;6309553;22;19981;-80
2023/12/09 04:20:39;;;;;;;;;;;7.90;98.80;;;;;;6310041;22;19899;-80
2023/12/09 04:23:04;;;;;;;;;;;7.80;98.70;;;;;;6309647;22;20313;-81
2023/12/09 04:25:30;;;;;;;;;;;7.90;98.60;;;;;;6310106;22;20212;-81
2023/12/09 04:27:56;;;;;;;;;;;7.90;98.50;;;;;;6308990;22;19927;-80
2023/12/09 04:30:22;;;;;;;;;;;7.90;98.60;;;;;;6309138;22;19909;-80
2023/12/09 04:32:47;;;;;;;;;;;7.90;98.50;;;;;;6282068;22;20275;-79
2023/12/09 04:35:13;;;;;;;;;;;7.90;98.50;;;;;;6309535;22;19911;-79
2023/12/09 04:37:39;;;;;;;;;;;7.90;98.40;;;;;;6309689;22;19922;-81
2023/12/09 04:40:06;;;;;;;;;;;7.90;98.30;;;;;;6309642;22;19942;-81
2023/12/09 04:42:33;;;;;;;;;;;7.90;98.10;;;;;;6282359;22;19899;-81
2023/12/09 04:44:58;;;;;;;;;;;7.80;98.10;;;;;;6309572;22;20225;-80
2023/12/09 04:47:24;;;;;;;;;;;7.80;98.10;;;;;;6309346;22;20297;-81
2023/12/09 04:49:50;;;;;;;;;;;7.70;98.20;;;;;;6282151;22;20228;-81
2023/12/09 04:52:15;;;;;;;;;;;7.70;98.20;;;;;;6309284;22;19933;-81
2023/12/09 04:54:41;;;;;;;;;;;7.70;98.00;;;;;;6309354;22;19906;-81
2023/12/09 04:57:07;;;;;;;;;;;7.70;97.90;;;;;;6309646;22;19910;-81
2023/12/09 04:59:33;;;;;;;;;;;7.70;97.70;;;;;;6309443;22;19899;-81
2023/12/09 05:01:59;;;;;;;;;;;7.60;97.80;;;;;;6281746;22;19921;-81
2023/12/09 05:04:24;;;;;;;;;;;7.60;97.80;;;;;;6309172;22;19899;-80
2023/12/09 05:06:50;;;;;;;;;;;7.60;97.60;;;;;;6309901;22;20293;-80
2023/12/09 05:09:15;;;;;;;;;;;7.60;97.50;;;;;;6309649;22;19976;-81
2023/12/09 05:11:41;;;;;;;;;;;7.50;97.30;;;;;;6281671;22;19898;-80
2023/12/09 05:14:06;;;;;;;;;;;7.50;97.40;;;;;;6308385;22;20325;-80
2023/12/09 05:16:32;;;;;;;;;;;7.50;97.50;;;;;;6308724;22;20247;-80
2023/12/09 05:18:57;;;;;;;;;;;7.50;97.40;;;;;;6308985;22;19899;-80
2023/12/09 05:21:23;;;;;;;;;;;7.50;97.10;;;;;;6309627;22;19948;-81
2023/12/09 05:23:49;;;;;;;;;;;7.50;96.90;;;;;;6308307;22;19952;-81
2023/12/09 05:26:24;;;;;;;;;;;7.40;96.70;;;;;;6308731;22;19899;-80
2023/12/09 05:28:50;;;;;;;;;;;7.40;96.60;;;;;;6308815;22;19964;-80
2023/12/09 05:31:16;;;;;;;;;;;7.30;96.60;;;;;;6309139;22;19910;-80
2023/12/09 05:33:42;;;;;;;;;;;7.30;96.70;;;;;;6308268;22;19899;-80
2023/12/09 05:36:08;;;;;;;;;;;7.20;96.70;;;;;;6308774;22;19961;-80
2023/12/09 05:38:33;;;;;;;;;;;7.20;96.80;;;;;;6309443;22;20295;-80
2023/12/09 05:40:59;;;;;;;;;;;7.20;96.80;;;;;;6308967;22;20308;-80
2023/12/09 05:43:24;;;;;;;;;;;7.20;96.70;;;;;;6308645;22;20313;-80
2023/12/09 05:45:50;;;;;;;;;;;7.20;96.70;;;;;;6308360;22;19938;-80
2023/12/09 05:48:16;;;;;;;;;;;7.20;96.70;;;;;;6308760;22;19899;-80
2023/12/09 05:50:41;;;;;;;;;;;7.20;96.30;;;;;;6308703;22;19986;-80
2023/12/09 05:53:07;;;;;;;;;;;7.20;96.20;;;;;;6308894;22;19903;-80
2023/12/09 05:55:33;;;;;;;;;;;7.20;96.10;;;;;;6309048;22;19948;-80
2023/12/09 05:57:58;;;;;;;;;;;7.20;96.10;;;;;;6309204;22;19899;-80
2023/12/09 06:00:24;;;;;;;;;;;7.20;96.10;;;;;;6308331;22;19899;-80
2023/12/09 06:02:49;;;;;;;;;;;7.10;96.00;;;;;;6308170;22;20264;-80
2023/12/09 06:05:15;;;;;;;;;;;7.10;96.00;;;;;;6308636;22;19899;-81
2023/12/09 06:07:40;;;;;;;;;;;7.10;96.00;;;;;;6308523;22;19918;-81
2023/12/09 06:10:06;;;;;;;;;;;7.00;96.00;;;;;;6308964;22;20134;-81
2023/12/09 06:12:32;;;;;;;;;;;7.00;96.10;;;;;;6308165;22;19899;-80
2023/12/09 06:14:57;;;;;;;;;;;7.00;96.20;;;;;;6307937;22;19906;-79
2023/12/09 06:17:23;;;;;;;;;;;7.00;96.20;;;;;;6307743;22;20233;-80
2023/12/09 06:19:49;;;;;;;;;;;7.00;96.10;;;;;;6309256;22;19906;-80
2023/12/09 06:22:14;;;;;;;;;;;7.10;96.10;;;;;;6307934;22;19899;-80
2023/12/09 06:24:40;;;;;;;;;;;7.00;96.20;;;;;;6307404;22;19978;-80
2023/12/09 06:27:05;;;;;;;;;;;7.10;96.20;;;;;;6307409;22;19909;-80
2023/12/09 06:29:31;;;;;;;;;;;7.10;96.10;;;;;;6308272;22;19899;-80
2023/12/09 06:31:56;;;;;;;;;;;7.10;96.20;;;;;;6307785;22;19899;-80
2023/12/09 06:34:22;;;;;;;;;;;7.10;96.30;;;;;;6280374;22;19914;-81
2023/12/09 06:36:47;;;;;;;;;;;7.10;96.30;;;;;;6307644;22;19906;-80
2023/12/09 06:39:13;;;;;;;;;;;7.10;96.30;;;;;;6307607;22;19924;-80
2023/12/09 06:41:39;;;;;;;;;;;7.10;96.20;;;;;;6307811;22;19899;-80
2023/12/09 06:44:05;;;;;;;;;;;7.10;96.20;;;;;;6307073;22;19931;-80
2023/12/09 06:46:31;;;;;;;;;;;7.00;96.20;;;;;;6307256;22;19948;-80
2023/12/09 06:48:56;;;;;;;;;;;7.00;96.20;;;;;;6308348;22;19899;-81
2023/12/09 06:51:22;;;;;;;;;;;7.00;96.20;;;;;;6308699;22;19903;-81
2023/12/09 06:53:47;;;;;;;;;;;7.00;96.20;;;;;;6307883;22;20209;-82
2023/12/09 06:56:19;;;;;;;;;;;7.00;96.30;;;;;;6308339;22;20260;-82
2023/12/09 06:58:45;;;;;;;;;;;7.00;96.20;;;;;;6308217;22;19929;-82
2023/12/09 07:01:31;;;;;;;;;;;7.00;96.10;;;;;;6306751;22;20301;-82
2023/12/09 07:03:56;;;;;;;;;;;7.00;96.10;;;;;;6305706;22;19986;-82
2023/12/09 07:06:23;;;;;;;;;;;6.90;96.10;;;;;;6307178;22;19899;-83
2023/12/09 07:08:48;;;;;;;;;;;7.00;96.10;;;;;;6306736;22;19952;-83
2023/12/09 07:11:15;;;;;;;;;;;6.90;96.00;;;;;;6306417;22;19997;-83
2023/12/09 07:13:41;;;;;;;;;;;6.90;96.00;;;;;;6277939;22;19899;-83
2023/12/09 07:16:10;;;;;;;;;;;6.90;96.00;;;;;;6304535;22;19922;-83
2023/12/09 07:18:40;;;;;;;;;;;6.90;95.90;;;;;;6305480;22;19902;-83
2023/12/09 07:21:06;;;;;;;;;;;6.90;95.90;;;;;;6307735;22;19902;-84
2023/12/09 07:23:31;;;;;;;;;;;6.90;95.90;;;;;;6307182;22;19973;-81
2023/12/09 07:25:57;;;;;;;;;;;6.90;95.90;;;;;;6307982;22;19982;-84
2023/12/09 07:28:22;;;;;;;;;;;6.90;95.90;;;;;;6307861;22;19899;-83
2023/12/09 07:30:48;;;;;;;;;;;6.90;95.90;;;;;;6280400;22;20199;-84
2023/12/09 07:33:14;;;;;;;;;;;6.90;95.90;;;;;;6305101;22;19899;-84
2023/12/09 07:35:39;;;;;;;;;;;6.90;95.90;;;;;;6307516;22;19910;-84
2023/12/09 07:38:05;;;;;;;;;;;6.90;95.60;;;;;;6307374;22;19903;-84
2023/12/09 07:40:30;;;;;;;;;;;6.80;95.70;;;;;;6308103;22;19899;-84
2023/12/09 07:42:56;;;;;;;;;;;6.80;95.80;;;;;;6280418;22;19899;-85
2023/12/09 07:45:21;;;;;;;;;;;6.80;95.90;;;;;;6307609;22;19981;-86
2023/12/09 07:47:47;;;;;;;;;;;6.80;97.20;;;;;;6307812;22;19902;-88
2023/12/09 07:50:13;;;;;;;;;;;6.90;96.00;;;;;;6307058;22;19968;-88
2023/12/09 07:52:38;;;;;;;;;;;6.90;95.80;;;;;;6307541;22;20319;-88
2023/12/09 07:55:04;;;;;;;;;;;6.90;95.90;;;;;;6307239;22;20432;-84
2023/12/09 07:57:30;;;;;;;;;;;6.90;96.00;;;;;;6306475;22;19898;-84
2023/12/09 07:59:55;;;;;;;;;;;6.90;96.00;;;;;;6307220;22;20209;-83
2023/12/09 08:02:21;;;;;;;;;;;6.90;96.00;;;;;;6280350;22;19906;-88
2023/12/09 08:04:46;;;;;;;;;;;6.90;95.80;;;;;;6307320;22;19902;-88
2023/12/09 08:07:12;;;;;;;;;;;6.90;95.60;;;;;;6279925;22;19906;-88
2023/12/09 08:09:37;;;;;;;;;;;6.90;95.70;;;;;;6307733;22;19930;-88
2023/12/09 08:12:03;;;;;;;;;;;6.90;95.70;;;;;;6307300;22;19899;-88
2023/12/09 08:14:29;;;;;;;;;;;7.00;95.70;;;;;;6307913;22;19899;-88
2023/12/09 08:16:55;;;;;;;;;;;7.00;95.70;;;;;;6280206;22;19906;-88
2023/12/09 08:19:20;;;;;;;;;;;7.00;95.80;;;;;;6279945;22;19899;-88
2023/12/09 08:21:46;;;;;;;;;;;7.10;95.60;;;;;;6307753;22;20312;-84
2023/12/09 08:24:11;;;;;;;;;;;7.10;95.70;;;;;;6307557;22;19974;-84
2023/12/09 08:26:37;;;;;;;;;;;7.20;95.80;;;;;;6279416;22;20344;-84
2023/12/09 08:29:04;;;;;;;;;;;7.30;95.90;;;;;;6306905;22;19905;-84
2023/12/09 08:31:30;;;;;;;;;;;7.40;95.80;;;;;;6306559;22;19906;-83
2023/12/09 08:33:56;;;;;;;;;;;7.60;95.50;;;;;;6307146;22;19980;-83
2023/12/09 08:36:22;;;;;;;;;;;7.70;95.20;;;;;;6307549;22;20297;-83
2023/12/09 08:38:47;;;;;;;;;;;7.80;95.30;;;;;;6308203;22;19941;-84
2023/12/09 08:41:13;;;;;;;;;;;7.90;95.20;;;;;;6280205;22;19977;-85
2023/12/09 08:43:38;;;;;;;;;;;8.00;95.00;;;;;;6280084;22;19899;-84
2023/12/09 08:46:04;;;;;;;;;;;8.00;94.50;;;;;;6307257;22;20347;-85
2023/12/09 08:48:29;;;;;;;;;;;8.00;94.60;;;;;;6308260;22;19899;-85
2023/12/09 08:50:55;;;;;;;;;;;8.00;94.80;;;;;;6309418;22;20581;-84
2023/12/09 08:53:20;;;;;;;;;;;8.10;94.90;;;;;;6309568;22;20370;-85
2023/12/09 08:55:46;;;;;;;;;;;8.20;94.90;;;;;;6308947;22;19911;-84
2023/12/09 08:58:12;;;;;;;;;;;8.30;94.70;;;;;;6309088;22;19906;-85
2023/12/09 09:00:37;;;;;;;;;;;8.30;94.60;;;;;;6308492;22;19986;-84
2023/12/09 09:03:03;;;;;;;;;;;8.40;94.40;;;;;;6309164;22;19899;-84
2023/12/09 09:05:29;;;;;;;;;;;8.40;94.50;;;;;;6281647;22;20272;-85
2023/12/09 09:07:54;;;;;;;;;;;8.40;94.30;;;;;;6309603;22;19898;-83
2023/12/09 09:10:20;;;;;;;;;;;8.40;94.40;;;;;;6308783;22;19953;-85
2023/12/09 09:12:46;;;;;;;;;;;8.40;94.30;;;;;;6308977;22;20330;-86
2023/12/09 09:15:12;;;;;;;;;;;8.40;94.30;;;;;;6309248;22;19973;-85
2023/12/09 09:17:39;;;;;;;;;;;8.50;94.50;;;;;;6309415;22;19930;-85
2023/12/09 09:20:05;;;;;;;;;;;8.50;94.50;;;;;;6304969;22;19933;-85
2023/12/09 09:22:31;;;;;;;;;;;8.50;94.50;;;;;;6308640;22;19899;-85
2023/12/09 09:24:58;;;;;;;;;;;8.50;94.60;;;;;;6282051;22;20335;-85
2023/12/09 09:27:23;;;;;;;;;;;8.50;94.70;;;;;;6308502;22;19899;-85
2023/12/09 09:29:49;;;;;;;;;;;8.50;94.90;;;;;;6308171;22;20335;-85
2023/12/09 09:32:16;;;;;;;;;;;8.60;94.80;;;;;;6308543;22;20225;-85
2023/12/09 09:34:41;;;;;;;;;;;8.60;94.80;;;;;;6308363;22;19911;-86
2023/12/09 09:37:08;;;;;;;;;;;8.60;94.90;;;;;;6308419;22;20261;-85
2023/12/09 09:39:33;;;;;;;;;;;8.60;94.70;;;;;;6308758;22;20210;-86
2023/12/09 09:42:11;;;;;;;;;;;8.70;94.90;;;;;;6309653;22;19903;-85
2023/12/09 09:44:38;;;;;;;;;;;8.80;94.60;;;;;;6309009;22;19903;-85
2023/12/09 09:47:06;;;;;;;;;;;8.80;94.20;;;;;;6308919;22;19969;-85
2023/12/09 09:49:33;;;;;;;;;;;8.90;93.70;;;;;;6280720;22;19927;-86
2023/12/09 09:52:01;;;;;;;;;;;8.90;93.60;;;;;;6307985;22;19926;-85
2023/12/09 09:54:29;;;;;;;;;;;8.90;93.80;;;;;;6309744;22;19930;-85
2023/12/09 09:56:58;;;;;;;;;;;9.00;93.50;;;;;;6309736;22;20240;-85
2023/12/09 09:59:24;;;;;;;;;;;9.00;93.80;;;;;;6308336;22;19905;-86
2023/12/09 10:01:49;;;;;;;;;;;9.10;93.50;;;;;;6307509;22;19938;-85
2023/12/09 10:04:16;;;;;;;;;;;9.10;93.30;;;;;;6307237;22;19898;-84
2023/12/09 10:06:43;;;;;;;;;;;9.20;93.50;;;;;;6308079;22;19899;-86
2023/12/09 10:09:08;;;;;;;;;;;9.20;93.40;;;;;;6307168;22;20327;-87
2023/12/09 10:11:34;;;;;;;;;;;9.30;93.50;;;;;;6307932;22;19950;-82
2023/12/09 10:13:59;;;;;;;;;;;9.40;93.40;;;;;;6306827;22;19933;-86
2023/12/09 10:16:25;;;;;;;;;;;9.40;92.90;;;;;;6307846;22;19898;-84
2023/12/09 10:18:52;;;;;;;;;;;9.50;92.70;;;;;;6307589;22;19914;-83
2023/12/09 10:21:17;;;;;;;;;;;9.60;92.90;;;;;;6308266;22;20194;-83
2023/12/09 10:23:45;;;;;;;;;;;9.70;93.20;;;;;;6308286;22;19945;-84
2023/12/09 10:26:10;;;;;;;;;;;9.80;93.20;;;;;;6308206;22;19926;-83
2023/12/09 10:28:36;;;;;;;;;;;10.00;92.70;;;;;;6308008;22;19906;-84
2023/12/09 10:31:02;;;;;;;;;;;10.10;92.10;;;;;;6307651;22;19903;-83
2023/12/09 10:33:32;;;;;;;;;;;10.10;92.40;;;;;;6307055;22;19903;-84
2023/12/09 10:35:57;;;;;;;;;;;10.20;92.40;;;;;;6306891;22;20240;-84
2023/12/09 10:38:23;;;;;;;;;;;10.40;92.60;;;;;;6307600;22;20306;-83
2023/12/09 10:40:53;;;;;;;;;;;10.70;92.50;;;;;;6307931;22;19944;-83
2023/12/09 10:43:19;;;;;;;;;;;11.00;92.50;;;;;;6307532;22;20313;-83
2023/12/09 10:45:45;;;;;;;;;;;11.20;92.20;;;;;;6307536;22;20271;-84
2023/12/09 10:48:10;;;;;;;;;;;11.50;91.80;;;;;;6307422;22;19978;-84
2023/12/09 10:50:37;;;;;;;;;;;11.80;91.70;;;;;;6307997;22;19903;-83
2023/12/09 10:53:11;;;;;;;;;;;12.00;90.40;;;;;;6308072;22;19906;-86
2023/12/09 10:55:37;;;;;;;;;;;12.10;90.20;;;;;;6280547;22;19960;-86
2023/12/09 10:58:06;;;;;;;;;;;12.20;89.90;;;;;;6308143;22;20248;-86
2023/12/09 11:00:36;;;;;;;;;;;12.30;90.30;;;;;;6308025;22;19970;-85
2023/12/09 11:03:02;;;;;;;;;;;12.40;88.70;;;;;;6307583;22;19907;-86
2023/12/09 11:05:29;;;;;;;;;;;12.40;87.90;;;;;;6307750;22;19903;-86
2023/12/09 11:07:55;;;;;;;;;;;12.50;89.20;;;;;;6307888;22;19905;-86
2023/12/09 11:10:21;;;;;;;;;;;12.70;86.80;;;;;;6308159;22;20210;-86
2023/12/09 11:12:47;;;;;;;;;;;12.80;88.00;;;;;;6307152;22;19899;-85
2023/12/09 11:15:12;;;;;;;;;;;12.90;83.80;;;;;;6304787;22;19899;-84
2023/12/09 11:17:40;;;;;;;;;;;12.90;82.90;;;;;;6305799;22;19899;-84
2023/12/09 11:20:09;;;;;;;;;;;12.90;84.20;;;;;;6307249;22;19991;-84
2023/12/09 11:22:38;;;;;;;;;;;12.90;85.80;;;;;;6307624;22;19977;-84
2023/12/09 11:25:04;;;;;;;;;;;12.90;84.40;;;;;;6307694;22;19906;-83
2023/12/09 11:27:32;;;;;;;;;;;12.90;83.50;;;;;;6306034;22;20264;-83
2023/12/09 11:29:58;;;;;;;;;;;13.10;85.70;;;;;;6307400;22;20317;-84
2023/12/09 11:32:24;;;;;;;;;;;13.30;80.00;;;;;;6307915;22;19899;-85
2023/12/09 11:34:53;;;;;;;;;;;13.50;81.10;;;;;;6283502;22;19973;-82
2023/12/09 11:37:19;;;;;;;;;;;13.70;82.90;;;;;;6275235;22;20572;-82
2023/12/09 11:39:44;;;;;;;;;;;14.50;82.30;;;;;;6275778;22;19899;-83
2023/12/09 11:42:11;;;;;;;;;;;15.60;82.00;;;;;;6275542;22;20312;-83
2023/12/09 11:44:38;;;;;;;;;;;16.70;78.20;;;;;;6275773;22;19919;-83
2023/12/09 11:47:04;;;;;;;;;;;17.60;74.10;;;;;;6249415;22;20296;-82
2023/12/09 11:49:30;;;;;;;;;;;18.40;71.00;;;;;;6249342;22;19950;-82
2023/12/09 11:51:56;;;;;;;;;;;19.00;60.70;;;;;;6276130;22;20024;-82
2023/12/09 11:54:22;;;;;;;;;;;19.60;64.30;;;;;;6276347;22;20363;-82
2023/12/09 11:56:48;;;;;;;;;;;20.10;62.90;;;;;;6276723;22;20324;-81
2023/12/09 11:59:14;;;;;;;;;;;20.50;57.10;;;;;;6276611;22;19990;-82
2023/12/09 12:01:40;;;;;;;;;;;20.80;57.80;;;;;;6276526;22;20313;-82
2023/12/09 12:04:05;;;;;;;;;;;21.00;56.50;;;;;;6276639;22;20214;-82
2023/12/09 12:06:32;;;;;;;;;;;21.20;56.30;;;;;;6276428;22;19948;-82
2023/12/09 12:08:58;;;;;;;;;;;21.30;54.70;;;;;;6276701;22;19928;-83
2023/12/09 12:11:24;;;;;;;;;;;21.30;54.60;;;;;;6276964;22;19938;-82
2023/12/09 12:13:50;;;;;;;;;;;21.00;54.20;;;;;;6276664;22;19910;-82
2023/12/09 12:16:16;;;;;;;;;;;20.60;55.60;;;;;;6275667;22;19899;-84
2023/12/09 12:18:41;;;;;;;;;;;20.20;56.60;;;;;;6275938;22;19899;-83
2023/12/09 12:21:07;;;;;;;;;;;20.00;57.90;;;;;;6276658;22;19906;-84
2023/12/09 12:23:33;;;;;;;;;;;20.20;59.40;;;;;;6275641;22;20201;-83
2023/12/09 12:25:59;;;;;;;;;;;20.60;62.80;;;;;;6274973;22;19899;-86
2023/12/09 12:28:25;;;;;;;;;;;21.10;57.80;;;;;;6277040;22;19903;-84
2023/12/09 12:30:54;;;;;;;;;;;21.30;57.60;;;;;;6276733;22;19903;-84
2023/12/09 12:33:21;;;;;;;;;;;21.30;54.70;;;;;;6277569;22;19957;-85
2023/12/09 12:35:51;;;;;;;;;;;21.20;56.60;;;;;;6277243;22;19907;-84
2023/12/09 12:38:17;;;;;;;;;;;20.90;57.20;;;;;;6277934;22;19907;-82
2023/12/09 12:40:42;;;;;;;;;;;20.50;58.00;;;;;;6277046;22;19961;-82
2023/12/09 12:43:08;;;;;;;;;;;20.10;58.80;;;;;;6277467;22;19903;-82
2023/12/09 12:45:35;;;;;;;;;;;19.70;58.90;;;;;;6278108;22;20039;-82
2023/12/09 12:48:01;;;;;;;;;;;19.20;59.90;;;;;;6277258;22;20265;-82
2023/12/09 12:50:26;;;;;;;;;;;18.70;61.10;;;;;;6277647;22;19907;-83
2023/12/09 12:52:52;;;;;;;;;;;18.10;62.30;;;;;;6276948;22;20260;-83
2023/12/09 12:55:17;;;;;;;;;;;17.60;63.30;;;;;;6277588;22;20248;-83
2023/12/09 12:57:43;;;;;;;;;;;17.20;64.40;;;;;;6250393;22;19917;-83
2023/12/09 13:00:11;;;;;;;;;;;16.80;65.20;;;;;;6277097;22;19903;-83
2023/12/09 13:02:37;;;;;;;;;;;16.40;66.00;;;;;;6250349;22;19903;-82
2023/12/09 13:05:02;;;;;;;;;;;16.00;66.80;;;;;;6251021;22;20272;-82
2023/12/09 13:07:28;;;;;;;;;;;15.90;67.30;;;;;;6277950;22;20259;-82
2023/12/09 13:09:54;;;;;;;;;;;15.60;67.60;;;;;;6277486;22;20313;-84
2023/12/09 13:12:19;;;;;;;;;;;15.20;68.40;;;;;;6277592;22;19899;-83
2023/12/09 13:14:45;;;;;;;;;;;15.10;69.00;;;;;;6278747;22;19899;-82
2023/12/09 13:17:10;;;;;;;;;;;14.90;68.80;;;;;;6277187;22;19925;-82
2023/12/09 13:19:36;;;;;;;;;;;14.70;69.50;;;;;;6277405;22;19903;-82
2023/12/09 13:22:02;;;;;;;;;;;14.60;69.50;;;;;;6277906;22;20208;-83
2023/12/09 13:24:28;;;;;;;;;;;14.40;69.60;;;;;;6276992;22;20284;-83
2023/12/09 13:26:53;;;;;;;;;;;14.20;69.40;;;;;;6278565;22;19903;-83
2023/12/09 13:29:19;;;;;;;;;;;14.00;70.20;;;;;;6278279;22;20315;-83
2023/12/09 13:31:44;;;;;;;;;;;13.90;70.60;;;;;;6277618;22;19995;-83
2023/12/09 13:34:10;;;;;;;;;;;13.80;71.00;;;;;;6277968;22;19927;-82
2023/12/09 13:36:39;;;;;;;;;;;13.70;70.50;;;;;;6250494;22;20206;-83
2023/12/09 13:39:15;;;;;;;;;;;13.60;70.50;;;;;;6250850;22;19900;-83
2023/12/09 13:41:42;;;;;;;;;;;13.40;70.60;;;;;;6250906;22;20270;-83
2023/12/09 13:44:08;;;;;;;;;;;13.20;71.50;;;;;;6278247;22;19922;-83
2023/12/09 13:46:34;;;;;;;;;;;13.10;72.30;;;;;;6250640;22;20214;-82
2023/12/09 13:49:00;;;;;;;;;;;13.10;72.60;;;;;;6278232;22;19906;-82
2023/12/09 13:51:26;;;;;;;;;;;13.00;73.40;;;;;;6278124;22;20324;-83
2023/12/09 13:53:53;;;;;;;;;;;13.00;73.80;;;;;;6277574;22;20329;-83
2023/12/09 13:56:19;;;;;;;;;;;13.00;74.00;;;;;;6277641;22;19941;-83
2023/12/09 13:58:44;;;;;;;;;;;12.90;74.00;;;;;;6277642;22;19899;-83
2023/12/09 14:01:10;;;;;;;;;;;12.90;74.60;;;;;;6277725;22;19942;-83
2023/12/09 14:03:35;;;;;;;;;;;12.80;75.00;;;;;;6276869;22;19899;-85
2023/12/09 14:06:01;;;;;;;;;;;12.70;75.20;;;;;;6277210;22;19906;-85
2023/12/09 14:08:27;;;;;;;;;;;12.70;75.70;;;;;;6278168;22;19961;-84
2023/12/09 14:10:52;;;;;;;;;;;12.70;76.10;;;;;;6278036;22;19933;-84
2023/12/09 14:13:19;;;;;;;;;;;12.60;76.10;;;;;;6277762;22;19899;-84
2023/12/09 14:15:45;;;;;;;;;;;12.60;76.50;;;;;;6277954;22;19969;-84
2023/12/09 14:18:11;;;;;;;;;;;12.60;77.00;;;;;;6277556;22;19907;-84
2023/12/09 14:20:36;;;;;;;;;;;12.50;77.30;;;;;;6277214;22;19993;-85